createdAt,value
2018-08-23T00:01:27.116Z,99898.67
2018-08-23T00:03:57.847Z,99892.80
2018-08-23T00:06:26.535Z,99896.81
2018-08-23T00:08:57.625Z,99891.12
2018-08-23T00:11:28.154Z,99886.03
2018-08-23T00:13:56.809Z,99884.84
2018-08-23T00:16:33.196Z,99885.22
2018-08-23T00:19:02.859Z,99880.09
2018-08-23T00:21:31.550Z,99879.02
2018-08-23T00:24:07.858Z,99882.66
2018-08-23T00:26:37.490Z,99878.38
2018-08-23T00:29:12.161Z,99876.34
2018-08-23T00:31:41.555Z,99879.38
2018-08-23T00:34:11.549Z,99869.65
2018-08-23T00:36:40.186Z,99873.30
2018-08-23T00:39:10.064Z,99866.38
2018-08-23T00:41:40.468Z,99873.52
2018-08-23T00:44:09.165Z,99865.72
2018-08-23T00:46:37.810Z,99866.94
2018-08-23T00:49:06.529Z,99860.41
2018-08-23T00:51:39.171Z,99860.03
2018-08-23T00:54:07.753Z,99859.17
2018-08-23T00:56:36.400Z,99858.95
2018-08-23T00:59:05.113Z,99852.26
2018-08-23T01:01:34.381Z,99857.02
2018-08-23T01:04:03.011Z,99848.25
2018-08-23T01:06:39.909Z,99853.45
2018-08-23T01:09:09.804Z,99844.18
2018-08-23T01:11:38.596Z,99844.66
2018-08-23T01:14:07.415Z,99841.81
2018-08-23T01:16:36.146Z,99831.93
2018-08-23T01:19:10.154Z,99824.91
2018-08-23T01:21:46.347Z,99825.98
2018-08-23T01:24:14.911Z,99826.36
2018-08-23T01:26:43.501Z,99828.66
2018-08-23T01:29:25.928Z,99825.62
2018-08-23T01:31:55.005Z,99818.59
2018-08-23T01:34:24.433Z,99822.27
2018-08-23T01:36:53.009Z,99817.15
2018-08-23T01:39:21.945Z,99808.91
2018-08-23T01:41:51.599Z,99811.58
2018-08-23T01:44:22.237Z,99804.89
2018-08-23T01:46:52.918Z,99803.78
2018-08-23T01:49:21.480Z,99793.54
2018-08-23T01:51:50.404Z,99795.44
2018-08-23T01:54:19.229Z,99791.62
2018-08-23T01:56:47.956Z,99789.80
2018-08-23T01:59:16.835Z,99790.17
2018-08-23T02:01:45.537Z,99792.25
2018-08-23T02:04:14.140Z,99785.59
2018-08-23T02:06:42.747Z,99791.42
2018-08-23T02:09:11.340Z,99786.83
2018-08-23T02:11:39.929Z,99781.99
2018-08-23T02:14:08.652Z,99782.84
2018-08-23T02:16:48.630Z,99775.82
2018-08-23T02:19:17.908Z,99770.59
2018-08-23T02:21:46.522Z,99774.57
2018-08-23T02:24:16.492Z,99767.08
2018-08-23T02:26:45.201Z,99770.27
2018-08-23T02:29:14.832Z,99770.97
2018-08-23T02:31:43.441Z,99770.13
2018-08-23T02:34:13.042Z,99774.98
2018-08-23T02:36:41.635Z,99774.50
2018-08-23T02:39:10.802Z,99769.00
2018-08-23T02:41:42.194Z,99768.30
2018-08-23T02:44:10.848Z,99759.47
2018-08-23T02:46:39.740Z,99758.84
2018-08-23T02:49:08.484Z,99762.32
2018-08-23T02:51:42.491Z,99764.91
2018-08-23T02:54:12.576Z,99759.29
2018-08-23T02:56:57.312Z,99761.96
2018-08-23T02:59:26.223Z,99762.33
2018-08-23T03:01:54.917Z,99759.51
2018-08-23T03:04:25.374Z,99762.55
2018-08-23T03:07:02.488Z,99762.55
2018-08-23T03:09:32.665Z,99758.66
2018-08-23T03:12:10.825Z,99752.46
2018-08-23T03:14:40.258Z,99753.95
2018-08-23T03:17:47.371Z,99758.17
2018-08-23T03:20:19.224Z,99755.30
2018-08-23T03:22:49.209Z,99768.38
2018-08-23T03:25:20.992Z,99766.14
2018-08-23T03:27:50.157Z,99771.05
2018-08-23T03:30:20.169Z,99771.27
2018-08-23T03:32:48.808Z,99766.55
2018-08-23T03:35:17.354Z,99765.06
2018-08-23T03:37:46.868Z,99760.78
2018-08-23T03:40:16.884Z,99766.60
2018-08-23T03:42:45.600Z,99765.33
2018-08-23T03:45:19.751Z,99761.22
2018-08-23T03:47:52.813Z,99759.51
2018-08-23T03:50:21.597Z,99759.66
2018-08-23T03:52:51.423Z,99758.92
2018-08-23T03:55:24.272Z,99752.24
2018-08-23T03:57:58.396Z,99753.58
2018-08-23T04:00:32.241Z,99752.98
2018-08-23T04:03:02.056Z,99749.35
2018-08-23T04:05:30.733Z,99761.49
2018-08-23T04:07:59.418Z,99756.99
2018-08-23T04:10:28.217Z,99747.87
2018-08-23T04:12:57.568Z,99746.16
2018-08-23T04:15:28.867Z,99751.13
2018-08-23T04:17:57.437Z,99751.13
2018-08-23T04:20:26.348Z,99748.30
2018-08-23T04:22:55.080Z,99747.19
2018-08-23T04:25:23.723Z,99749.64
2018-08-23T04:27:53.449Z,99751.13
2018-08-23T04:30:22.158Z,99751.13
2018-08-23T04:32:51.368Z,99745.15
2018-08-23T04:35:26.782Z,99750.53
2018-08-23T04:37:55.501Z,99748.25
2018-08-23T04:40:24.077Z,99748.29
2018-08-23T04:42:52.909Z,99748.96
2018-08-23T04:45:25.348Z,99751.53
2018-08-23T04:47:59.257Z,99752.61
2018-08-23T04:50:29.316Z,99748.59
2018-08-23T04:52:59.017Z,99750.89
2018-08-23T04:55:27.792Z,99741.81
2018-08-23T04:57:57.603Z,99741.14
2018-08-23T05:00:26.857Z,99746.52
2018-08-23T05:02:55.578Z,99743.25
2018-08-23T05:05:24.333Z,99739.67
2018-08-23T05:07:53.313Z,99737.03
2018-08-23T05:10:21.977Z,99735.63
2018-08-23T05:12:50.622Z,99734.42
2018-08-23T05:15:19.445Z,99739.19
2018-08-23T05:17:48.145Z,99730.43
2018-08-23T05:20:16.797Z,99736.16
2018-08-23T05:22:56.213Z,99736.03
2018-08-23T05:25:25.877Z,99736.66
2018-08-23T05:28:12.133Z,99727.03
2018-08-23T05:30:42.232Z,99729.64
2018-08-23T05:33:15.925Z,99724.51
2018-08-23T05:35:44.697Z,99722.08
2018-08-23T05:38:14.100Z,99714.02
2018-08-23T05:40:53.175Z,99720.06
2018-08-23T05:43:22.733Z,99713.45
2018-08-23T05:45:55.732Z,99711.44
2018-08-23T05:48:32.471Z,99715.52
2018-08-23T05:51:13.568Z,99713.20
2018-08-23T05:53:45.709Z,99713.01
2018-08-23T05:56:14.469Z,99711.47
2018-08-23T05:58:43.048Z,99711.06
2018-08-23T06:01:11.785Z,99703.80
2018-08-23T06:03:40.450Z,99703.87
2018-08-23T06:06:09.485Z,99703.78
2018-08-23T06:08:41.566Z,99703.98
2018-08-23T06:11:11.312Z,99710.27
2018-08-23T06:13:40.561Z,99707.97
2018-08-23T06:16:09.151Z,99702.29
2018-08-23T06:18:37.944Z,99700.61
2018-08-23T06:21:07.501Z,99697.25
2018-08-23T06:24:09.285Z,99699.73
2018-08-23T06:26:45.974Z,99693.05
2018-08-23T06:29:15.931Z,99691.80
2018-08-23T06:31:48.245Z,99685.08
2018-08-23T06:34:16.857Z,99694.05
2018-08-23T06:36:46.591Z,99690.64
2018-08-23T06:39:15.312Z,99687.75
2018-08-23T06:41:44.082Z,99681.86
2018-08-23T06:44:12.960Z,99686.30
2018-08-23T06:46:41.536Z,99682.77
2018-08-23T06:49:10.221Z,99682.73
2018-08-23T06:51:39.181Z,99684.02
2018-08-23T06:54:07.934Z,99684.16
2018-08-23T06:56:38.065Z,99696.30
2018-08-23T06:59:07.187Z,99695.97
2018-08-23T07:01:41.128Z,99694.59
2018-08-23T07:04:12.807Z,99687.98
2018-08-23T07:06:41.737Z,99680.06
2018-08-23T07:09:17.407Z,99682.55
2018-08-23T07:11:46.413Z,99681.73
2018-08-23T07:14:16.416Z,99677.27
2018-08-23T07:16:46.507Z,99671.00
2018-08-23T07:19:25.949Z,99659.82
2018-08-23T07:21:55.476Z,99668.67
2018-08-23T07:24:40.520Z,99664.88
2018-08-23T07:27:10.355Z,99666.13
2018-08-23T07:29:39.357Z,99667.14
2018-08-23T07:32:09.414Z,99664.84
2018-08-23T07:34:38.234Z,99664.09
2018-08-23T07:37:17.256Z,99658.69
2018-08-23T07:39:52.204Z,99660.20
2018-08-23T07:42:21.360Z,99659.28
2018-08-23T07:44:50.125Z,99659.01
2018-08-23T07:47:18.945Z,99659.08
2018-08-23T07:49:47.869Z,99665.42
2018-08-23T07:52:16.579Z,99666.34
2018-08-23T07:54:45.341Z,99665.91
2018-08-23T07:57:13.941Z,99662.76
2018-08-23T07:59:43.037Z,99670.63
2018-08-23T08:02:13.259Z,99664.70
2018-08-23T08:04:42.230Z,99665.75
2018-08-23T08:07:17.599Z,99656.48
2018-08-23T08:09:46.649Z,99656.52
2018-08-23T08:12:20.914Z,99650.62
2018-08-23T08:14:49.570Z,99660.98
2018-08-23T08:17:23.299Z,99667.77
2018-08-23T08:19:55.490Z,99657.26
2018-08-23T08:22:24.397Z,99653.22
2018-08-23T08:25:01.769Z,99647.45
2018-08-23T08:27:30.685Z,99644.80
2018-08-23T08:29:59.773Z,99647.81
2018-08-23T08:32:28.540Z,99643.25
2018-08-23T08:34:59.036Z,99647.83
2018-08-23T08:37:29.229Z,99648.48
2018-08-23T08:39:57.955Z,99652.54
2018-08-23T08:42:30.674Z,99653.52
2018-08-23T08:45:10.425Z,99647.05
2018-08-23T08:47:39.829Z,99639.25
2018-08-23T08:50:08.789Z,99643.30
2018-08-23T08:52:37.517Z,99638.53
2018-08-23T08:55:08.877Z,99635.73
2018-08-23T08:57:40.972Z,99639.41
2018-08-23T09:00:10.744Z,99626.50
2018-08-23T09:02:39.526Z,99623.38
2018-08-23T09:05:09.446Z,99616.52
2018-08-23T09:07:41.561Z,99615.45
2018-08-23T09:10:10.161Z,99610.91
2018-08-23T09:12:43.961Z,99610.48
2018-08-23T09:15:12.613Z,99606.69
2018-08-23T09:17:43.201Z,99611.03
2018-08-23T09:20:13.185Z,99607.34
2018-08-23T09:22:47.185Z,99602.59
2018-08-23T09:25:22.427Z,99602.08
2018-08-23T09:27:52.184Z,99599.11
2018-08-23T09:30:26.112Z,99593.85
2018-08-23T09:32:56.322Z,99597.11
2018-08-23T09:35:29.476Z,99593.79
2018-08-23T09:37:59.280Z,99582.83
2018-08-23T09:40:28.626Z,99578.39
2018-08-23T09:42:57.688Z,99575.39
2018-08-23T09:45:27.036Z,99574.50
2018-08-23T09:47:55.842Z,99572.11
2018-08-23T09:50:24.567Z,99570.88
2018-08-23T09:52:53.817Z,99566.97
2018-08-23T09:55:26.045Z,99562.36
2018-08-23T09:57:54.670Z,99566.27
2018-08-23T10:00:28.495Z,99565.73
2018-08-23T10:03:02.890Z,99560.55
2018-08-23T10:05:36.854Z,99559.09
2018-08-23T10:08:11.046Z,99562.14
2018-08-23T10:10:45.006Z,99561.28
2018-08-23T10:13:18.870Z,99561.27
2018-08-23T10:15:52.800Z,99558.37
2018-08-23T10:18:27.113Z,99558.14
2018-08-23T10:21:00.307Z,99552.86
2018-08-23T10:23:28.977Z,99550.18
2018-08-23T10:25:58.937Z,99544.99
2018-08-23T10:28:32.751Z,99542.82
2018-08-23T10:31:01.549Z,99544.50
2018-08-23T10:33:30.369Z,99543.59
2018-08-23T10:35:59.211Z,99539.41
2018-08-23T10:38:28.937Z,99527.55
2018-08-23T10:41:02.662Z,99530.20
2018-08-23T10:43:36.391Z,99528.13
2018-08-23T10:46:05.793Z,99521.19
2018-08-23T10:48:34.477Z,99517.09
2018-08-23T10:51:04.096Z,99520.32
2018-08-23T10:53:32.731Z,99522.80
2018-08-23T10:56:01.628Z,99517.24
2018-08-23T10:58:30.379Z,99514.83
2018-08-23T11:00:59.670Z,99513.87
2018-08-23T11:03:28.240Z,99506.66
2018-08-23T11:05:56.905Z,99503.36
2018-08-23T11:08:33.481Z,99498.59
2018-08-23T11:11:07.425Z,99508.41
2018-08-23T11:13:41.285Z,99503.58
2018-08-23T11:16:15.229Z,99509.84
2018-08-23T11:18:49.180Z,99506.34
2018-08-23T11:21:18.533Z,99512.33
2018-08-23T11:23:47.861Z,99503.84
2018-08-23T11:26:21.182Z,99502.49
2018-08-23T11:28:50.431Z,99493.98
2018-08-23T11:31:24.460Z,99491.67
2018-08-23T11:33:53.541Z,99488.02
2018-08-23T11:36:22.108Z,99487.39
2018-08-23T11:38:50.827Z,99481.67
2018-08-23T11:41:20.646Z,99482.80
2018-08-23T11:43:49.693Z,99476.88
2018-08-23T11:46:20.644Z,99476.81
2018-08-23T11:48:50.521Z,99477.38
2018-08-23T11:51:19.798Z,99474.88
2018-08-23T11:53:48.745Z,99469.51
2018-08-23T11:56:17.539Z,99470.56
2018-08-23T11:58:46.378Z,99463.89
2018-08-23T12:01:17.182Z,99447.83
2018-08-23T12:03:46.440Z,99450.09
2018-08-23T12:06:16.349Z,99445.43
2018-08-23T12:08:45.333Z,99436.08
2018-08-23T12:11:14.025Z,99436.81
2018-08-23T12:13:48.861Z,99427.23
2018-08-23T12:16:17.625Z,99425.68
2018-08-23T12:18:46.363Z,99426.42
2018-08-23T12:21:15.037Z,99419.55
2018-08-23T12:23:43.971Z,99417.48
2018-08-23T12:26:13.446Z,99416.00
2018-08-23T12:28:47.549Z,99409.17
2018-08-23T12:31:16.149Z,99409.52
2018-08-23T12:33:44.812Z,99402.53
2018-08-23T12:36:13.572Z,99401.73
2018-08-23T12:38:47.408Z,99398.11
2018-08-23T12:43:29.736Z,99388.41
2018-08-23T12:46:02.041Z,99392.54
2018-08-23T12:48:31.474Z,99380.95
2018-08-23T12:51:01.161Z,99375.84
2018-08-23T12:53:30.359Z,99390.32
2018-08-23T12:55:59.000Z,99386.75
2018-08-23T12:58:27.597Z,99382.38
2018-08-23T13:00:56.388Z,99375.28
2018-08-23T13:03:25.126Z,99372.28
2018-08-23T13:05:53.742Z,99371.41
2018-08-23T13:08:22.491Z,99371.27
2018-08-23T13:10:51.100Z,99370.45
2018-08-23T13:13:19.698Z,99368.16
2018-08-23T13:15:48.433Z,99363.61
2018-08-23T13:18:17.058Z,99357.23
2018-08-23T13:20:45.860Z,99369.39
2018-08-23T13:23:14.657Z,99365.19
2018-08-23T13:25:48.462Z,99354.47
2018-08-23T13:28:17.154Z,99346.90
2018-08-23T13:30:45.758Z,99345.60
2018-08-23T13:33:14.521Z,99356.15
2018-08-23T13:35:43.123Z,99348.30
2018-08-23T13:38:12.737Z,99340.33
2018-08-23T13:40:42.483Z,99345.17
2018-08-23T13:43:11.121Z,99332.55
2018-08-23T13:45:40.861Z,99338.34
2018-08-23T13:48:10.520Z,99328.29
2018-08-23T13:50:39.185Z,99330.42
2018-08-23T13:53:07.733Z,99315.52
2018-08-23T13:55:37.051Z,99311.86
2018-08-23T13:58:05.714Z,99308.59
2018-08-23T14:00:40.078Z,99313.20
2018-08-23T14:03:09.994Z,99316.01
2018-08-23T14:05:39.826Z,99307.02
2018-08-23T14:08:09.048Z,99304.73
2018-08-23T14:10:37.932Z,99304.95
2018-08-23T14:13:07.395Z,99308.02
2018-08-23T14:15:41.312Z,99302.64
2018-08-23T14:18:10.016Z,99297.88
2018-08-23T14:20:38.877Z,99291.64
2018-08-23T14:23:07.562Z,99294.61
2018-08-23T14:25:36.220Z,99296.20
2018-08-23T14:28:05.001Z,99285.80
2018-08-23T14:30:33.788Z,99289.16
2018-08-23T14:33:02.546Z,99280.00
2018-08-23T14:35:31.253Z,99282.22
2018-08-23T14:37:59.978Z,99283.06
2018-08-23T14:40:28.709Z,99277.94
2018-08-23T14:42:57.513Z,99269.80
2018-08-23T14:45:29.885Z,99264.88
2018-08-23T14:48:03.713Z,99263.92
2018-08-23T14:50:33.186Z,99258.07
2018-08-23T14:53:01.933Z,99253.26
2018-08-23T14:55:35.729Z,99245.08
2018-08-23T14:58:04.377Z,99239.13
2018-08-23T15:00:33.008Z,99235.91
2018-08-23T15:03:01.894Z,99242.38
2018-08-23T15:05:30.448Z,99240.48
2018-08-23T15:07:59.162Z,99228.20
2018-08-23T15:10:27.853Z,99225.33
2018-08-23T15:12:56.531Z,99229.80
2018-08-23T15:15:30.414Z,99229.95
2018-08-23T15:17:59.110Z,99230.31
2018-08-23T15:20:27.809Z,99220.59
2018-08-23T15:22:56.397Z,99222.98
2018-08-23T15:25:25.309Z,99220.67
2018-08-23T15:27:54.899Z,99221.52
2018-08-23T15:30:25.518Z,99215.20
2018-08-23T15:32:54.760Z,99209.06
2018-08-23T15:35:24.633Z,99212.39
2018-08-23T15:37:54.585Z,99212.98
2018-08-23T15:40:23.363Z,99208.50
2018-08-23T15:42:52.062Z,99209.58
2018-08-23T15:45:21.206Z,99212.92
2018-08-23T15:47:50.145Z,99209.64
2018-08-23T15:50:18.811Z,99210.77
2018-08-23T15:52:47.529Z,99209.09
2018-08-23T15:55:17.157Z,99201.86
2018-08-23T15:57:45.769Z,99206.53
2018-08-23T16:00:14.490Z,99206.55
2018-08-23T16:02:43.979Z,99202.59
2018-08-23T16:05:12.527Z,99198.36
2018-08-23T16:07:41.545Z,99192.56
2018-08-23T16:10:11.247Z,99195.03
2018-08-23T16:12:40.919Z,99191.27
2018-08-23T16:15:14.901Z,99194.84
2018-08-23T16:17:48.818Z,99191.81
2018-08-23T16:20:23.214Z,99186.81
2018-08-23T16:22:51.811Z,99186.02
2018-08-23T16:25:20.529Z,99180.45
2018-08-23T16:27:50.765Z,99184.02
2018-08-23T16:30:19.769Z,99178.41
2018-08-23T16:32:48.437Z,99178.59
2018-08-23T16:35:17.077Z,99173.85
2018-08-23T16:37:45.755Z,99178.16
2018-08-23T16:40:19.764Z,99173.23
2018-08-23T16:42:48.589Z,99176.17
2018-08-23T16:45:17.212Z,99181.23
2018-08-23T16:47:45.954Z,99178.25
2018-08-23T16:50:14.549Z,99176.84
2018-08-23T16:52:43.243Z,99183.52
2018-08-23T16:55:12.057Z,99170.37
2018-08-23T16:57:41.660Z,99174.26
2018-08-23T17:00:10.469Z,99165.08
2018-08-23T17:02:39.446Z,99170.35
2018-08-23T17:05:08.125Z,99168.30
2018-08-23T17:07:37.837Z,99167.81
2018-08-23T17:10:06.555Z,99168.77
2018-08-23T17:12:35.354Z,99162.25
2018-08-23T17:15:04.202Z,99171.08
2018-08-23T17:17:34.213Z,99173.33
2018-08-23T17:20:03.022Z,99170.92
2018-08-23T17:22:31.955Z,99173.97
2018-08-23T17:25:00.805Z,99176.23
2018-08-23T17:27:29.561Z,99178.95
2018-08-23T17:29:58.191Z,99179.47
2018-08-23T17:32:26.969Z,99183.66
2018-08-23T17:34:55.712Z,99175.00
2018-08-23T17:37:24.361Z,99182.95
2018-08-23T17:39:52.947Z,99182.00
2018-08-23T17:42:25.749Z,99186.00
2018-08-23T17:44:54.415Z,99181.08
2018-08-23T17:47:23.061Z,99190.23
2018-08-23T17:49:51.845Z,99184.70
2018-08-23T17:52:20.503Z,99190.55
2018-08-23T17:54:49.296Z,99193.66
2018-08-23T17:57:18.616Z,99192.50
2018-08-23T17:59:47.309Z,99190.30
2018-08-23T18:02:16.003Z,99188.22
2018-08-23T18:04:44.599Z,99189.03
2018-08-23T18:07:13.322Z,99192.11
2018-08-23T18:09:42.810Z,99185.86
2018-08-23T18:12:11.550Z,99200.55
2018-08-23T18:14:40.245Z,99204.38
2018-08-23T18:17:08.881Z,99200.52
2018-08-23T18:19:37.631Z,99203.20
2018-08-23T18:22:06.473Z,99201.77
2018-08-23T18:24:35.225Z,99205.21
2018-08-23T18:27:03.817Z,99197.45
2018-08-23T18:29:32.518Z,99202.45
2018-08-23T18:32:01.442Z,99204.17
2018-08-23T18:34:30.265Z,99205.89
2018-08-23T18:36:59.073Z,99202.94
2018-08-23T18:39:27.854Z,99204.69
2018-08-23T18:41:57.057Z,99204.36
2018-08-23T18:44:25.772Z,99203.19
2018-08-23T18:46:54.897Z,99212.18
2018-08-23T18:49:24.332Z,99216.91
2018-08-23T18:51:53.027Z,99224.75
2018-08-23T18:54:21.919Z,99222.41
2018-08-23T18:56:50.593Z,99220.73
2018-08-23T18:59:19.427Z,99217.77
2018-08-23T19:01:49.098Z,99216.74
2018-08-23T19:04:17.961Z,99222.61
2018-08-23T19:06:47.537Z,99219.89
2018-08-23T19:09:16.196Z,99222.47
2018-08-23T19:11:45.988Z,99219.80
2018-08-23T19:14:14.686Z,99216.44
2018-08-23T19:16:48.729Z,99215.40
2018-08-23T19:19:17.473Z,99214.84
2018-08-23T19:21:46.288Z,99209.83
2018-08-23T19:24:15.023Z,99204.96
2018-08-23T19:26:43.780Z,99214.78
2018-08-23T19:29:13.243Z,99209.84
2018-08-23T19:31:42.109Z,99210.09
2018-08-23T19:34:10.741Z,99210.31
2018-08-23T19:36:39.525Z,99218.36
2018-08-23T19:39:10.877Z,99217.78
2018-08-23T19:41:39.501Z,99217.30
2018-08-23T19:44:08.651Z,99212.09
2018-08-23T19:46:42.509Z,99209.69
2018-08-23T19:49:16.394Z,99218.21
2018-08-23T19:51:45.073Z,99214.27
2018-08-23T19:54:13.868Z,99212.92
2018-08-23T19:56:42.549Z,99209.13
2018-08-23T19:59:11.229Z,99203.16
2018-08-23T20:01:40.169Z,99198.58
2018-08-23T20:04:08.897Z,99198.03
2018-08-23T20:06:37.877Z,99193.64
2018-08-23T20:09:09.374Z,99192.87
2018-08-23T20:11:38.318Z,99204.80
2018-08-23T20:14:07.167Z,99198.30
2018-08-23T20:16:35.903Z,99199.23
2018-08-23T20:19:04.875Z,99194.95
2018-08-23T20:21:33.914Z,99196.02
2018-08-23T20:24:02.625Z,99193.95
2018-08-23T20:26:31.280Z,99195.36
2018-08-23T20:29:00.317Z,99194.36
2018-08-23T20:31:28.999Z,99192.36
2018-08-23T20:33:57.918Z,99193.87
2018-08-23T20:36:26.597Z,99191.83
2018-08-23T20:38:55.392Z,99192.59
2018-08-23T20:41:24.462Z,99199.55
2018-08-23T20:43:53.209Z,99199.39
2018-08-23T20:46:21.869Z,99202.60
2018-08-23T20:48:50.706Z,99199.05
2018-08-23T20:51:19.558Z,99204.46
2018-08-23T20:53:48.364Z,99205.99
2018-08-23T20:56:17.052Z,99207.23
2018-08-23T20:58:45.743Z,99212.30
2018-08-23T21:01:14.408Z,99212.64
2018-08-23T21:03:44.354Z,99205.16
2018-08-23T21:06:12.989Z,99201.82
2018-08-23T21:08:41.666Z,99200.09
2018-08-23T21:11:11.165Z,99208.87
2018-08-23T21:13:39.865Z,99202.77
2018-08-23T21:16:08.599Z,99209.19
2018-08-23T21:18:37.210Z,99207.83
2018-08-23T21:21:06.526Z,99206.81
2018-08-23T21:23:35.200Z,99212.89
2018-08-23T21:26:03.970Z,99213.18
2018-08-23T21:28:32.777Z,99202.50
2018-08-23T21:31:01.551Z,99204.98
2018-08-23T21:33:31.324Z,99204.93
2018-08-23T21:35:59.865Z,99206.61
2018-08-23T21:38:30.527Z,99201.37
2018-08-23T21:40:59.209Z,99202.22
2018-08-23T21:43:27.801Z,99202.22
2018-08-23T21:45:56.384Z,99210.02
2018-08-23T21:48:24.957Z,99215.48
2018-08-23T21:50:53.568Z,99208.44
2018-08-23T21:53:24.084Z,99210.54
2018-08-23T21:55:52.769Z,99209.22
2018-08-23T21:58:21.503Z,99208.27
2018-08-23T22:00:59.077Z,99199.51
2018-08-23T22:03:27.973Z,99198.01
2018-08-23T22:05:56.633Z,99191.78
2018-08-23T22:08:26.377Z,99185.09
2018-08-23T22:10:55.033Z,99182.78
2018-08-23T22:13:23.850Z,99179.25
2018-08-23T22:15:53.038Z,99183.51
2018-08-23T22:18:21.815Z,99187.91
2018-08-23T22:20:50.714Z,99183.19
2018-08-23T22:23:19.320Z,99184.87
2018-08-23T22:25:47.894Z,99179.80
2018-08-23T22:28:17.752Z,99185.89
2018-08-23T22:30:46.424Z,99186.59
2018-08-23T22:33:15.078Z,99189.80
2018-08-23T22:35:43.770Z,99188.98
2018-08-23T22:38:12.501Z,99185.95
2018-08-23T22:40:41.401Z,99181.89
2018-08-23T22:43:11.075Z,99182.91
2018-08-23T22:45:39.860Z,99176.83
2018-08-23T22:48:08.470Z,99184.61
2018-08-23T22:50:37.144Z,99179.05
2018-08-23T22:53:06.034Z,99182.59
2018-08-23T22:55:35.347Z,99180.22
2018-08-23T22:58:03.960Z,99178.87
2018-08-23T23:00:38.050Z,99182.25
2018-08-23T23:03:12.073Z,99185.28
2018-08-23T23:05:40.777Z,99182.75
2018-08-23T23:08:09.948Z,99173.81
2018-08-23T23:10:40.521Z,99169.94
2018-08-23T23:13:09.122Z,99172.45
2018-08-23T23:15:39.698Z,99167.89
2018-08-23T23:18:09.009Z,99159.30
2018-08-23T23:20:38.077Z,99156.59
2018-08-23T23:23:06.692Z,99154.93
2018-08-23T23:25:36.283Z,99147.51
2018-08-23T23:28:05.162Z,99157.63
2018-08-23T23:30:33.926Z,99159.14
2018-08-23T23:33:03.119Z,99163.14
2018-08-23T23:35:31.779Z,99171.42
2018-08-23T23:38:00.602Z,99173.09
2018-08-23T23:40:29.261Z,99162.30
2018-08-23T23:42:57.969Z,99156.53
2018-08-23T23:45:26.586Z,99159.55
2018-08-23T23:47:55.452Z,99154.33
2018-08-23T23:50:24.207Z,99155.63
2018-08-23T23:52:53.709Z,99153.42
2018-08-23T23:55:22.356Z,99148.66
2018-08-23T23:57:51.025Z,99156.03
